sensor_id;sensor_type;location;lat;lon;timestamp;temperature;humidity
23591;DHT22;11973;52.098;7.582;2022-07-06T00:01:19;15.10;60.10
23591;DHT22;11973;52.098;7.582;2022-07-06T00:03:45;15.20;60.30
23591;DHT22;11973;52.098;7.582;2022-07-06T00:06:11;15.20;60.40
23591;DHT22;11973;52.098;7.582;2022-07-06T00:08:37;15.10;60.60
23591;DHT22;11973;52.098;7.582;2022-07-06T00:11:03;15.10;60.70
23591;DHT22;11973;52.098;7.582;2022-07-06T00:13:29;15.00;60.80
23591;DHT22;11973;52.098;7.582;2022-07-06T00:15:55;15.00;61.00
23591;DHT22;11973;52.098;7.582;2022-07-06T00:18:20;15.00;61.30
23591;DHT22;11973;52.098;7.582;2022-07-06T00:20:46;14.90;61.30
23591;DHT22;11973;52.098;7.582;2022-07-06T00:23:12;14.90;61.40
23591;DHT22;11973;52.098;7.582;2022-07-06T00:25:37;14.80;61.50
23591;DHT22;11973;52.098;7.582;2022-07-06T00:28:03;14.80;61.60
23591;DHT22;11973;52.098;7.582;2022-07-06T00:30:29;14.80;61.80
23591;DHT22;11973;52.098;7.582;2022-07-06T00:32:55;14.70;61.80
23591;DHT22;11973;52.098;7.582;2022-07-06T00:35:22;14.70;62.00
23591;DHT22;11973;52.098;7.582;2022-07-06T00:37:48;14.70;62.10
23591;DHT22;11973;52.098;7.582;2022-07-06T00:40:13;14.60;62.10
23591;DHT22;11973;52.098;7.582;2022-07-06T00:42:44;14.70;62.30
23591;DHT22;11973;52.098;7.582;2022-07-06T00:45:11;14.70;62.60
23591;DHT22;11973;52.098;7.582;2022-07-06T00:47:39;14.50;62.40
23591;DHT22;11973;52.098;7.582;2022-07-06T00:50:06;14.50;62.60
23591;DHT22;11973;52.098;7.582;2022-07-06T00:52:45;14.40;62.60
23591;DHT22;11973;52.098;7.582;2022-07-06T00:55:11;14.30;62.70
23591;DHT22;11973;52.098;7.582;2022-07-06T00:57:38;14.30;62.80
23591;DHT22;11973;52.098;7.582;2022-07-06T01:00:06;14.20;62.80
23591;DHT22;11973;52.098;7.582;2022-07-06T01:02:33;14.20;63.00
23591;DHT22;11973;52.098;7.582;2022-07-06T01:04:59;14.20;63.30
23591;DHT22;11973;52.098;7.582;2022-07-06T01:07:25;14.10;63.30
23591;DHT22;11973;52.098;7.582;2022-07-06T01:09:51;14.10;63.50
23591;DHT22;11973;52.098;7.582;2022-07-06T01:12:17;14.10;63.70
23591;DHT22;11973;52.098;7.582;2022-07-06T01:14:43;14.00;63.70
23591;DHT22;11973;52.098;7.582;2022-07-06T01:17:11;14.00;64.70
23591;DHT22;11973;52.098;7.582;2022-07-06T01:19:37;14.00;64.80
23591;DHT22;11973;52.098;7.582;2022-07-06T01:22:03;13.90;64.00
23591;DHT22;11973;52.098;7.582;2022-07-06T01:24:28;13.90;64.20
23591;DHT22;11973;52.098;7.582;2022-07-06T01:26:54;14.10;64.60
23591;DHT22;11973;52.098;7.582;2022-07-06T01:29:20;13.90;64.40
23591;DHT22;11973;52.098;7.582;2022-07-06T01:31:50;13.80;64.50
23591;DHT22;11973;52.098;7.582;2022-07-06T01:34:16;13.70;64.60
23591;DHT22;11973;52.098;7.582;2022-07-06T01:36:43;13.80;64.80
23591;DHT22;11973;52.098;7.582;2022-07-06T01:39:10;13.70;64.90
23591;DHT22;11973;52.098;7.582;2022-07-06T01:41:37;13.60;65.00
23591;DHT22;11973;52.098;7.582;2022-07-06T01:44:04;13.60;65.10
23591;DHT22;11973;52.098;7.582;2022-07-06T01:46:30;13.70;65.30
23591;DHT22;11973;52.098;7.582;2022-07-06T01:48:56;13.60;65.40
23591;DHT22;11973;52.098;7.582;2022-07-06T01:51:23;13.50;65.50
23591;DHT22;11973;52.098;7.582;2022-07-06T01:53:50;13.50;65.60
23591;DHT22;11973;52.098;7.582;2022-07-06T01:56:18;13.40;65.60
23591;DHT22;11973;52.098;7.582;2022-07-06T01:58:46;13.40;65.70
23591;DHT22;11973;52.098;7.582;2022-07-06T02:01:15;13.50;66.00
23591;DHT22;11973;52.098;7.582;2022-07-06T02:03:42;13.30;66.00
23591;DHT22;11973;52.098;7.582;2022-07-06T02:06:09;13.40;66.20
23591;DHT22;11973;52.098;7.582;2022-07-06T02:08:35;13.20;66.10
23591;DHT22;11973;52.098;7.582;2022-07-06T02:11:05;13.20;66.30
23591;DHT22;11973;52.098;7.582;2022-07-06T02:13:33;13.20;66.40
23591;DHT22;11973;52.098;7.582;2022-07-06T02:16:00;13.10;66.40
23591;DHT22;11973;52.098;7.582;2022-07-06T02:18:26;13.30;66.80
23591;DHT22;11973;52.098;7.582;2022-07-06T02:20:52;13.10;66.70
23591;DHT22;11973;52.098;7.582;2022-07-06T02:23:18;13.10;66.90
23591;DHT22;11973;52.098;7.582;2022-07-06T02:25:44;13.00;67.10
23591;DHT22;11973;52.098;7.582;2022-07-06T02:28:10;13.00;67.10
23591;DHT22;11973;52.098;7.582;2022-07-06T02:30:36;13.00;67.30
23591;DHT22;11973;52.098;7.582;2022-07-06T02:33:03;13.10;67.50
23591;DHT22;11973;52.098;7.582;2022-07-06T02:35:29;12.90;67.80
23591;DHT22;11973;52.098;7.582;2022-07-06T02:37:55;12.90;67.50
23591;DHT22;11973;52.098;7.582;2022-07-06T02:40:21;12.90;67.60
23591;DHT22;11973;52.098;7.582;2022-07-06T02:42:47;12.90;67.70
23591;DHT22;11973;52.098;7.582;2022-07-06T02:45:13;12.80;67.70
23591;DHT22;11973;52.098;7.582;2022-07-06T02:47:39;13.00;68.00
23591;DHT22;11973;52.098;7.582;2022-07-06T02:50:05;12.80;68.00
23591;DHT22;11973;52.098;7.582;2022-07-06T02:52:31;12.80;68.10
23591;DHT22;11973;52.098;7.582;2022-07-06T02:54:59;12.70;68.20
23591;DHT22;11973;52.098;7.582;2022-07-06T02:57:26;12.70;68.30
23591;DHT22;11973;52.098;7.582;2022-07-06T02:59:52;12.70;68.30
23591;DHT22;11973;52.098;7.582;2022-07-06T03:02:18;12.70;68.50
23591;DHT22;11973;52.098;7.582;2022-07-06T03:04:45;12.60;68.50
23591;DHT22;11973;52.098;7.582;2022-07-06T03:07:11;12.60;68.60
23591;DHT22;11973;52.098;7.582;2022-07-06T03:09:37;12.60;68.70
23591;DHT22;11973;52.098;7.582;2022-07-06T03:12:03;12.50;68.80
23591;DHT22;11973;52.098;7.582;2022-07-06T03:14:31;12.50;69.00
23591;DHT22;11973;52.098;7.582;2022-07-06T03:16:57;12.50;69.10
23591;DHT22;11973;52.098;7.582;2022-07-06T03:19:23;12.40;69.10
23591;DHT22;11973;52.098;7.582;2022-07-06T03:21:49;12.40;69.30
23591;DHT22;11973;52.098;7.582;2022-07-06T03:24:15;12.40;69.40
23591;DHT22;11973;52.098;7.582;2022-07-06T03:26:41;12.40;69.50
23591;DHT22;11973;52.098;7.582;2022-07-06T03:29:07;12.40;69.70
23591;DHT22;11973;52.098;7.582;2022-07-06T03:31:33;12.40;69.80
23591;DHT22;11973;52.098;7.582;2022-07-06T03:33:59;12.40;69.80
23591;DHT22;11973;52.098;7.582;2022-07-06T03:36:25;12.40;69.90
23591;DHT22;11973;52.098;7.582;2022-07-06T03:38:51;12.50;70.20
23591;DHT22;11973;52.098;7.582;2022-07-06T03:41:17;12.40;70.20
23591;DHT22;11973;52.098;7.582;2022-07-06T03:43:44;12.40;70.30
23591;DHT22;11973;52.098;7.582;2022-07-06T03:46:10;12.40;70.30
23591;DHT22;11973;52.098;7.582;2022-07-06T03:48:35;12.40;70.40
23591;DHT22;11973;52.098;7.582;2022-07-06T03:51:03;12.50;70.60
23591;DHT22;11973;52.098;7.582;2022-07-06T03:53:29;12.30;70.50
23591;DHT22;11973;52.098;7.582;2022-07-06T03:55:55;12.50;70.90
23591;DHT22;11973;52.098;7.582;2022-07-06T03:58:40;12.30;70.80
23591;DHT22;11973;52.098;7.582;2022-07-06T04:01:06;12.40;71.00
23591;DHT22;11973;52.098;7.582;2022-07-06T04:03:32;12.30;71.10
23591;DHT22;11973;52.098;7.582;2022-07-06T04:05:58;12.40;71.30
23591;DHT22;11973;52.098;7.582;2022-07-06T04:08:24;12.40;71.50
23591;DHT22;11973;52.098;7.582;2022-07-06T04:10:54;12.60;72.20
23591;DHT22;11973;52.098;7.582;2022-07-06T04:13:21;12.50;71.80
23591;DHT22;11973;52.098;7.582;2022-07-06T05:17:38;14.10;73.60
23591;DHT22;11973;52.098;7.582;2022-07-06T05:20:05;14.10;74.40
23591;DHT22;11973;52.098;7.582;2022-07-06T05:22:34;14.20;73.70
23591;DHT22;11973;52.098;7.582;2022-07-06T05:25:00;14.30;74.10
23591;DHT22;11973;52.098;7.582;2022-07-06T05:27:26;14.40;73.80
23591;DHT22;11973;52.098;7.582;2022-07-06T05:29:53;14.40;73.80
23591;DHT22;11973;52.098;7.582;2022-07-06T05:32:19;14.50;73.90
23591;DHT22;11973;52.098;7.582;2022-07-06T05:34:45;14.70;74.00
23591;DHT22;11973;52.098;7.582;2022-07-06T05:37:11;14.70;74.00
23591;DHT22;11973;52.098;7.582;2022-07-06T05:39:38;14.80;74.90
23591;DHT22;11973;52.098;7.582;2022-07-06T05:42:04;14.80;74.10
23591;DHT22;11973;52.098;7.582;2022-07-06T05:44:32;14.90;74.10
23591;DHT22;11973;52.098;7.582;2022-07-06T05:46:58;14.90;74.20
23591;DHT22;11973;52.098;7.582;2022-07-06T05:49:45;15.00;74.20
23591;DHT22;11973;52.098;7.582;2022-07-06T05:52:30;15.10;74.20
23591;DHT22;11973;52.098;7.582;2022-07-06T05:54:56;15.20;74.20
23591;DHT22;11973;52.098;7.582;2022-07-06T05:57:22;15.20;74.20
23591;DHT22;11973;52.098;7.582;2022-07-06T05:59:49;15.20;74.20
23591;DHT22;11973;52.098;7.582;2022-07-06T06:02:15;15.30;74.20
23591;DHT22;11973;52.098;7.582;2022-07-06T06:04:41;15.30;74.20
23591;DHT22;11973;52.098;7.582;2022-07-06T06:07:07;15.40;74.30
23591;DHT22;11973;52.098;7.582;2022-07-06T06:09:33;15.40;74.40
23591;DHT22;11973;52.098;7.582;2022-07-06T06:11:59;15.50;74.50
23591;DHT22;11973;52.098;7.582;2022-07-06T06:14:24;15.60;74.50
23591;DHT22;11973;52.098;7.582;2022-07-06T06:16:51;15.70;74.60
23591;DHT22;11973;52.098;7.582;2022-07-06T06:19:17;15.80;74.60
23591;DHT22;11973;52.098;7.582;2022-07-06T06:21:43;15.90;74.60
23591;DHT22;11973;52.098;7.582;2022-07-06T06:24:08;15.90;74.50
23591;DHT22;11973;52.098;7.582;2022-07-06T06:26:34;16.00;74.40
23591;DHT22;11973;52.098;7.582;2022-07-06T06:29:00;16.10;74.40
23591;DHT22;11973;52.098;7.582;2022-07-06T06:31:26;16.20;74.50
23591;DHT22;11973;52.098;7.582;2022-07-06T06:33:51;16.30;74.50
23591;DHT22;11973;52.098;7.582;2022-07-06T06:36:18;16.30;74.40
23591;DHT22;11973;52.098;7.582;2022-07-06T06:38:44;16.40;74.30
23591;DHT22;11973;52.098;7.582;2022-07-06T06:41:09;16.50;74.30
23591;DHT22;11973;52.098;7.582;2022-07-06T06:43:35;16.50;74.20
23591;DHT22;11973;52.098;7.582;2022-07-06T06:46:10;16.60;74.30
23591;DHT22;11973;52.098;7.582;2022-07-06T06:48:39;16.70;74.20
23591;DHT22;11973;52.098;7.582;2022-07-06T06:51:13;16.80;74.10
23591;DHT22;11973;52.098;7.582;2022-07-06T06:53:39;16.90;74.10
23591;DHT22;11973;52.098;7.582;2022-07-06T06:56:05;16.90;74.10
23591;DHT22;11973;52.098;7.582;2022-07-06T06:58:31;17.00;74.10
23591;DHT22;11973;52.098;7.582;2022-07-06T07:00:56;17.00;74.00
23591;DHT22;11973;52.098;7.582;2022-07-06T07:03:22;17.10;74.70
23591;DHT22;11973;52.098;7.582;2022-07-06T07:05:48;17.10;74.50
23591;DHT22;11973;52.098;7.582;2022-07-06T07:08:14;17.10;73.50
23591;DHT22;11973;52.098;7.582;2022-07-06T07:10:40;17.10;74.20
23591;DHT22;11973;52.098;7.582;2022-07-06T07:13:05;17.10;73.30
23591;DHT22;11973;52.098;7.582;2022-07-06T07:15:31;17.10;73.20
23591;DHT22;11973;52.098;7.582;2022-07-06T07:17:57;17.10;73.00
23591;DHT22;11973;52.098;7.582;2022-07-06T07:20:23;17.10;72.90
23591;DHT22;11973;52.098;7.582;2022-07-06T07:22:49;17.20;73.00
23591;DHT22;11973;52.098;7.582;2022-07-06T07:25:15;17.30;73.10
23591;DHT22;11973;52.098;7.582;2022-07-06T07:27:40;17.40;73.00
23591;DHT22;11973;52.098;7.582;2022-07-06T07:30:06;17.40;72.80
23591;DHT22;11973;52.098;7.582;2022-07-06T07:32:32;17.50;72.70
23591;DHT22;11973;52.098;7.582;2022-07-06T07:34:58;17.60;72.60
23591;DHT22;11973;52.098;7.582;2022-07-06T07:37:24;17.60;72.50
23591;DHT22;11973;52.098;7.582;2022-07-06T07:39:50;17.70;72.50
23591;DHT22;11973;52.098;7.582;2022-07-06T07:42:15;17.80;72.40
23591;DHT22;11973;52.098;7.582;2022-07-06T07:44:41;17.90;72.30
23591;DHT22;11973;52.098;7.582;2022-07-06T07:47:07;17.90;72.20
23591;DHT22;11973;52.098;7.582;2022-07-06T07:49:32;18.00;72.10
23591;DHT22;11973;52.098;7.582;2022-07-06T07:51:58;18.10;72.00
23591;DHT22;11973;52.098;7.582;2022-07-06T07:54:24;18.10;71.80
23591;DHT22;11973;52.098;7.582;2022-07-06T07:56:49;18.20;71.70
23591;DHT22;11973;52.098;7.582;2022-07-06T07:59:15;18.30;71.50
23591;DHT22;11973;52.098;7.582;2022-07-06T08:01:41;18.30;71.20
23591;DHT22;11973;52.098;7.582;2022-07-06T08:04:07;18.40;70.90
23591;DHT22;11973;52.098;7.582;2022-07-06T08:06:32;18.30;70.70
23591;DHT22;11973;52.098;7.582;2022-07-06T08:08:58;18.40;70.60
23591;DHT22;11973;52.098;7.582;2022-07-06T08:11:24;18.40;70.50
23591;DHT22;11973;52.098;7.582;2022-07-06T08:13:49;18.50;70.40
23591;DHT22;11973;52.098;7.582;2022-07-06T08:16:15;18.50;70.40
23591;DHT22;11973;52.098;7.582;2022-07-06T08:18:41;18.50;70.20
23591;DHT22;11973;52.098;7.582;2022-07-06T08:21:07;18.60;70.50
23591;DHT22;11973;52.098;7.582;2022-07-06T08:23:33;18.70;70.10
23591;DHT22;11973;52.098;7.582;2022-07-06T08:26:01;18.80;70.10
23591;DHT22;11973;52.098;7.582;2022-07-06T08:28:27;18.90;69.80
23591;DHT22;11973;52.098;7.582;2022-07-06T08:30:53;18.90;69.60
23591;DHT22;11973;52.098;7.582;2022-07-06T08:33:20;18.90;69.40
23591;DHT22;11973;52.098;7.582;2022-07-06T08:35:46;19.00;69.30
23591;DHT22;11973;52.098;7.582;2022-07-06T08:38:12;19.00;68.90
23591;DHT22;11973;52.098;7.582;2022-07-06T08:40:40;19.00;68.70
23591;DHT22;11973;52.098;7.582;2022-07-06T08:43:06;19.10;68.70
23591;DHT22;11973;52.098;7.582;2022-07-06T08:45:34;19.20;68.70
23591;DHT22;11973;52.098;7.582;2022-07-06T08:48:05;19.40;68.60
23591;DHT22;11973;52.098;7.582;2022-07-06T08:50:32;19.40;68.20
23591;DHT22;11973;52.098;7.582;2022-07-06T08:52:58;19.40;67.90
23591;DHT22;11973;52.098;7.582;2022-07-06T08:55:27;19.40;67.50
23591;DHT22;11973;52.098;7.582;2022-07-06T08:57:55;19.30;67.10
23591;DHT22;11973;52.098;7.582;2022-07-06T09:00:24;19.30;67.00
23591;DHT22;11973;52.098;7.582;2022-07-06T09:02:53;19.20;66.80
23591;DHT22;11973;52.098;7.582;2022-07-06T09:05:22;19.30;66.80
23591;DHT22;11973;52.098;7.582;2022-07-06T09:07:52;19.40;67.00
23591;DHT22;11973;52.098;7.582;2022-07-06T09:10:20;19.50;66.80
23591;DHT22;11973;52.098;7.582;2022-07-06T09:12:47;19.50;66.40
23591;DHT22;11973;52.098;7.582;2022-07-06T09:15:14;19.60;66.50
23591;DHT22;11973;52.098;7.582;2022-07-06T09:17:42;19.60;66.20
23591;DHT22;11973;52.098;7.582;2022-07-06T09:20:09;19.60;65.90
23591;DHT22;11973;52.098;7.582;2022-07-06T09:22:37;19.70;65.80
23591;DHT22;11973;52.098;7.582;2022-07-06T09:25:08;19.80;65.70
23591;DHT22;11973;52.098;7.582;2022-07-06T09:27:42;20.00;65.90
23591;DHT22;11973;52.098;7.582;2022-07-06T09:30:09;20.10;65.60
23591;DHT22;11973;52.098;7.582;2022-07-06T09:32:40;20.20;65.40
23591;DHT22;11973;52.098;7.582;2022-07-06T09:35:07;20.20;65.00
23591;DHT22;11973;52.098;7.582;2022-07-06T09:37:33;20.20;64.80
23591;DHT22;11973;52.098;7.582;2022-07-06T09:39:59;20.20;64.70
23591;DHT22;11973;52.098;7.582;2022-07-06T09:42:25;20.20;64.70
23591;DHT22;11973;52.098;7.582;2022-07-06T09:44:52;20.20;64.40
23591;DHT22;11973;52.098;7.582;2022-07-06T09:47:19;20.10;64.10
23591;DHT22;11973;52.098;7.582;2022-07-06T09:49:45;20.00;63.80
23591;DHT22;11973;52.098;7.582;2022-07-06T09:52:13;20.00;63.50
23591;DHT22;11973;52.098;7.582;2022-07-06T09:54:40;19.90;63.40
23591;DHT22;11973;52.098;7.582;2022-07-06T09:57:06;19.90;63.20
23591;DHT22;11973;52.098;7.582;2022-07-06T09:59:34;19.90;63.10
23591;DHT22;11973;52.098;7.582;2022-07-06T10:02:03;20.00;63.10
23591;DHT22;11973;52.098;7.582;2022-07-06T10:04:31;20.10;63.30
23591;DHT22;11973;52.098;7.582;2022-07-06T10:06:57;20.30;63.00
23591;DHT22;11973;52.098;7.582;2022-07-06T10:09:25;20.30;62.70
23591;DHT22;11973;52.098;7.582;2022-07-06T10:11:57;20.40;62.70
23591;DHT22;11973;52.098;7.582;2022-07-06T10:14:28;20.40;62.50
23591;DHT22;11973;52.098;7.582;2022-07-06T10:16:59;20.50;62.40
23591;DHT22;11973;52.098;7.582;2022-07-06T10:19:26;20.50;62.30
23591;DHT22;11973;52.098;7.582;2022-07-06T10:21:52;20.60;62.10
23591;DHT22;11973;52.098;7.582;2022-07-06T10:24:20;20.70;61.90
23591;DHT22;11973;52.098;7.582;2022-07-06T10:26:46;20.60;61.40
23591;DHT22;11973;52.098;7.582;2022-07-06T10:29:13;20.60;61.90
23591;DHT22;11973;52.098;7.582;2022-07-06T10:31:47;20.60;60.80
23591;DHT22;11973;52.098;7.582;2022-07-06T10:34:16;20.70;60.60
23591;DHT22;11973;52.098;7.582;2022-07-06T10:36:44;20.80;60.70
23591;DHT22;11973;52.098;7.582;2022-07-06T10:39:13;21.00;60.60
23591;DHT22;11973;52.098;7.582;2022-07-06T10:41:57;21.20;61.20
23591;DHT22;11973;52.098;7.582;2022-07-06T10:44:25;21.30;60.10
23591;DHT22;11973;52.098;7.582;2022-07-06T10:46:58;21.40;59.90
23591;DHT22;11973;52.098;7.582;2022-07-06T10:49:26;21.50;59.50
23591;DHT22;11973;52.098;7.582;2022-07-06T10:51:53;21.60;59.10
23591;DHT22;11973;52.098;7.582;2022-07-06T10:54:21;21.60;58.90
23591;DHT22;11973;52.098;7.582;2022-07-06T10:56:50;21.60;58.80
23591;DHT22;11973;52.098;7.582;2022-07-06T10:59:23;21.60;58.60
23591;DHT22;11973;52.098;7.582;2022-07-06T11:02:17;21.70;58.40
23591;DHT22;11973;52.098;7.582;2022-07-06T11:04:45;21.60;57.90
23591;DHT22;11973;52.098;7.582;2022-07-06T11:07:13;21.50;57.80
23591;DHT22;11973;52.098;7.582;2022-07-06T11:09:39;21.40;57.50
23591;DHT22;11973;52.098;7.582;2022-07-06T11:12:17;21.30;57.40
23591;DHT22;11973;52.098;7.582;2022-07-06T11:14:48;21.30;57.10
23591;DHT22;11973;52.098;7.582;2022-07-06T11:17:15;21.30;57.00
23591;DHT22;11973;52.098;7.582;2022-07-06T11:19:55;21.40;56.90
23591;DHT22;11973;52.098;7.582;2022-07-06T11:22:21;21.50;57.00
23591;DHT22;11973;52.098;7.582;2022-07-06T11:24:50;21.70;57.10
23591;DHT22;11973;52.098;7.582;2022-07-06T11:27:17;21.80;56.90
23591;DHT22;11973;52.098;7.582;2022-07-06T11:29:43;21.90;56.70
23591;DHT22;11973;52.098;7.582;2022-07-06T11:32:11;21.90;56.30
23591;DHT22;11973;52.098;7.582;2022-07-06T11:34:41;22.00;56.70
23591;DHT22;11973;52.098;7.582;2022-07-06T11:37:10;22.00;56.00
23591;DHT22;11973;52.098;7.582;2022-07-06T11:39:46;22.10;56.10
23591;DHT22;11973;52.098;7.582;2022-07-06T11:42:14;22.10;55.80
23591;DHT22;11973;52.098;7.582;2022-07-06T11:44:41;22.10;55.70
23591;DHT22;11973;52.098;7.582;2022-07-06T11:47:09;22.10;55.40
23591;DHT22;11973;52.098;7.582;2022-07-06T11:49:36;22.10;55.10
23591;DHT22;11973;52.098;7.582;2022-07-06T11:52:13;22.20;54.80
23591;DHT22;11973;52.098;7.582;2022-07-06T11:54:40;22.30;54.90
23591;DHT22;11973;52.098;7.582;2022-07-06T11:57:08;22.40;55.00
23591;DHT22;11973;52.098;7.582;2022-07-06T11:59:36;22.50;54.80
23591;DHT22;11973;52.098;7.582;2022-07-06T12:04:34;22.60;54.50
23591;DHT22;11973;52.098;7.582;2022-07-06T12:07:08;22.70;54.30
23591;DHT22;11973;52.098;7.582;2022-07-06T12:09:35;22.70;54.00
23591;DHT22;11973;52.098;7.582;2022-07-06T12:12:02;22.70;53.90
23591;DHT22;11973;52.098;7.582;2022-07-06T12:14:29;22.80;53.80
23591;DHT22;11973;52.098;7.582;2022-07-06T12:16:55;22.90;53.80
23591;DHT22;11973;52.098;7.582;2022-07-06T12:19:22;23.10;53.60
23591;DHT22;11973;52.098;7.582;2022-07-06T12:21:50;23.30;53.70
23591;DHT22;11973;52.098;7.582;2022-07-06T12:24:21;23.50;53.40
23591;DHT22;11973;52.098;7.582;2022-07-06T12:26:48;23.60;53.30
23591;DHT22;11973;52.098;7.582;2022-07-06T12:29:14;23.70;53.10
23591;DHT22;11973;52.098;7.582;2022-07-06T12:31:42;23.70;53.60
23591;DHT22;11973;52.098;7.582;2022-07-06T12:34:22;23.70;52.90
23591;DHT22;11973;52.098;7.582;2022-07-06T12:36:53;23.70;52.20
23591;DHT22;11973;52.098;7.582;2022-07-06T12:39:22;23.60;52.20
23591;DHT22;11973;52.098;7.582;2022-07-06T12:42:00;23.60;52.10
23591;DHT22;11973;52.098;7.582;2022-07-06T12:44:27;23.50;51.80
23591;DHT22;11973;52.098;7.582;2022-07-06T12:49:29;23.30;51.20
23591;DHT22;11973;52.098;7.582;2022-07-06T12:52:01;23.30;51.40
23591;DHT22;11973;52.098;7.582;2022-07-06T12:54:35;23.30;52.00
23591;DHT22;11973;52.098;7.582;2022-07-06T12:59:43;23.20;51.70
23591;DHT22;11973;52.098;7.582;2022-07-06T13:02:19;23.30;51.20
23591;DHT22;11973;52.098;7.582;2022-07-06T13:04:57;23.40;51.00
23591;DHT22;11973;52.098;7.582;2022-07-06T13:07:24;23.50;50.90
23591;DHT22;11973;52.098;7.582;2022-07-06T13:09:50;23.60;50.80
23591;DHT22;11973;52.098;7.582;2022-07-06T13:12:15;23.60;50.80
23591;DHT22;11973;52.098;7.582;2022-07-06T13:14:41;23.70;50.80
23591;DHT22;11973;52.098;7.582;2022-07-06T13:17:07;23.80;51.40
23591;DHT22;11973;52.098;7.582;2022-07-06T13:19:33;23.90;50.40
23591;DHT22;11973;52.098;7.582;2022-07-06T13:21:59;24.00;50.20
23591;DHT22;11973;52.098;7.582;2022-07-06T13:24:24;24.00;50.00
23591;DHT22;11973;52.098;7.582;2022-07-06T13:26:50;24.00;49.80
23591;DHT22;11973;52.098;7.582;2022-07-06T13:29:16;23.90;49.70
23591;DHT22;11973;52.098;7.582;2022-07-06T13:31:42;23.80;49.50
23591;DHT22;11973;52.098;7.582;2022-07-06T13:34:08;23.80;49.50
23591;DHT22;11973;52.098;7.582;2022-07-06T13:36:35;23.70;49.40
23591;DHT22;11973;52.098;7.582;2022-07-06T13:39:01;23.60;49.30
23591;DHT22;11973;52.098;7.582;2022-07-06T13:41:27;23.50;49.30
23591;DHT22;11973;52.098;7.582;2022-07-06T13:43:53;23.50;49.10
23591;DHT22;11973;52.098;7.582;2022-07-06T13:46:18;23.50;49.00
23591;DHT22;11973;52.098;7.582;2022-07-06T13:48:44;23.50;49.00
23591;DHT22;11973;52.098;7.582;2022-07-06T13:51:10;23.50;48.90
23591;DHT22;11973;52.098;7.582;2022-07-06T13:53:36;23.50;48.90
23591;DHT22;11973;52.098;7.582;2022-07-06T13:56:02;23.50;48.80
23591;DHT22;11973;52.098;7.582;2022-07-06T13:58:28;23.60;48.80
23591;DHT22;11973;52.098;7.582;2022-07-06T14:00:54;23.60;48.60
23591;DHT22;11973;52.098;7.582;2022-07-06T14:03:19;23.50;48.40
23591;DHT22;11973;52.098;7.582;2022-07-06T14:05:45;23.40;48.30
23591;DHT22;11973;52.098;7.582;2022-07-06T14:08:11;23.30;48.30
23591;DHT22;11973;52.098;7.582;2022-07-06T14:10:37;23.20;48.20
23591;DHT22;11973;52.098;7.582;2022-07-06T14:13:03;23.20;48.30
23591;DHT22;11973;52.098;7.582;2022-07-06T14:15:29;23.10;48.20
23591;DHT22;11973;52.098;7.582;2022-07-06T14:17:55;23.10;48.30
23591;DHT22;11973;52.098;7.582;2022-07-06T14:20:20;23.10;48.30
23591;DHT22;11973;52.098;7.582;2022-07-06T14:22:46;23.10;48.20
23591;DHT22;11973;52.098;7.582;2022-07-06T14:25:12;23.00;48.30
23591;DHT22;11973;52.098;7.582;2022-07-06T14:27:37;22.90;48.00
23591;DHT22;11973;52.098;7.582;2022-07-06T14:30:03;22.80;48.00
23591;DHT22;11973;52.098;7.582;2022-07-06T14:32:29;22.70;48.00
23591;DHT22;11973;52.098;7.582;2022-07-06T14:34:55;22.60;47.90
23591;DHT22;11973;52.098;7.582;2022-07-06T14:37:21;22.60;47.90
23591;DHT22;11973;52.098;7.582;2022-07-06T14:39:46;22.60;47.90
23591;DHT22;11973;52.098;7.582;2022-07-06T14:42:14;22.60;47.90
23591;DHT22;11973;52.098;7.582;2022-07-06T14:44:40;22.60;47.90
23591;DHT22;11973;52.098;7.582;2022-07-06T14:47:06;22.60;48.00
23591;DHT22;11973;52.098;7.582;2022-07-06T14:49:31;22.50;47.90
23591;DHT22;11973;52.098;7.582;2022-07-06T14:51:57;22.50;48.00
23591;DHT22;11973;52.098;7.582;2022-07-06T14:54:24;22.50;48.20
23591;DHT22;11973;52.098;7.582;2022-07-06T14:56:50;22.70;48.60
23591;DHT22;11973;52.098;7.582;2022-07-06T14:59:16;23.30;49.70
23591;DHT22;11973;52.098;7.582;2022-07-06T15:01:42;23.90;49.30
23591;DHT22;11973;52.098;7.582;2022-07-06T15:04:08;24.40;49.00
23591;DHT22;11973;52.098;7.582;2022-07-06T15:06:34;24.80;48.80
23591;DHT22;11973;52.098;7.582;2022-07-06T15:09:00;25.10;48.30
23591;DHT22;11973;52.098;7.582;2022-07-06T15:11:33;25.40;48.00
23591;DHT22;11973;52.098;7.582;2022-07-06T15:13:59;25.50;47.70
23591;DHT22;11973;52.098;7.582;2022-07-06T15:16:25;25.70;47.60
23591;DHT22;11973;52.098;7.582;2022-07-06T15:18:51;25.70;47.10
23591;DHT22;11973;52.098;7.582;2022-07-06T15:21:17;25.70;46.80
23591;DHT22;11973;52.098;7.582;2022-07-06T15:23:43;26.10;47.80
23591;DHT22;11973;52.098;7.582;2022-07-06T15:26:08;26.70;47.80
23591;DHT22;11973;52.098;7.582;2022-07-06T15:28:35;27.40;48.10
23591;DHT22;11973;52.098;7.582;2022-07-06T15:31:01;28.40;47.80
23591;DHT22;11973;52.098;7.582;2022-07-06T15:33:27;29.30;46.90
23591;DHT22;11973;52.098;7.582;2022-07-06T15:35:52;30.10;45.80
23591;DHT22;11973;52.098;7.582;2022-07-06T15:38:18;30.40;44.60
23591;DHT22;11973;52.098;7.582;2022-07-06T15:40:45;30.00;43.30
23591;DHT22;11973;52.098;7.582;2022-07-06T15:43:13;29.50;42.80
23591;DHT22;11973;52.098;7.582;2022-07-06T15:45:39;28.90;42.60
23591;DHT22;11973;52.098;7.582;2022-07-06T15:48:06;28.20;42.40
23591;DHT22;11973;52.098;7.582;2022-07-06T15:50:32;27.60;42.40
23591;DHT22;11973;52.098;7.582;2022-07-06T15:52:59;27.10;42.50
23591;DHT22;11973;52.098;7.582;2022-07-06T15:55:25;26.60;42.70
23591;DHT22;11973;52.098;7.582;2022-07-06T15:57:51;26.30;43.00
23591;DHT22;11973;52.098;7.582;2022-07-06T16:00:18;26.10;43.20
23591;DHT22;11973;52.098;7.582;2022-07-06T16:02:44;25.90;43.30
23591;DHT22;11973;52.098;7.582;2022-07-06T16:05:10;25.90;43.40
23591;DHT22;11973;52.098;7.582;2022-07-06T16:07:36;25.80;43.50
23591;DHT22;11973;52.098;7.582;2022-07-06T16:10:02;25.90;43.50
23591;DHT22;11973;52.098;7.582;2022-07-06T16:12:28;26.00;43.40
23591;DHT22;11973;52.098;7.582;2022-07-06T16:14:54;26.10;43.40
23591;DHT22;11973;52.098;7.582;2022-07-06T16:17:19;26.10;43.10
23591;DHT22;11973;52.098;7.582;2022-07-06T16:19:45;26.00;42.90
23591;DHT22;11973;52.098;7.582;2022-07-06T16:22:11;25.90;42.70
23591;DHT22;11973;52.098;7.582;2022-07-06T16:24:37;25.60;42.50
23591;DHT22;11973;52.098;7.582;2022-07-06T16:27:06;25.50;42.60
23591;DHT22;11973;52.098;7.582;2022-07-06T16:29:32;25.40;42.90
23591;DHT22;11973;52.098;7.582;2022-07-06T16:31:58;25.20;42.90
23591;DHT22;11973;52.098;7.582;2022-07-06T16:34:23;25.20;42.90
23591;DHT22;11973;52.098;7.582;2022-07-06T16:36:50;25.00;42.90
23591;DHT22;11973;52.098;7.582;2022-07-06T16:39:17;24.90;42.80